createdAt,value
2022-10-01T00:01:20.294Z,3.77
2022-10-01T00:03:49.336Z,3.90
2022-10-01T00:06:22.192Z,4.40
2022-10-01T00:08:51.786Z,4.00
2022-10-01T00:11:22.841Z,4.23
2022-10-01T00:13:53.554Z,4.20
2022-10-01T00:16:25.770Z,4.37
2022-10-01T00:18:55.037Z,4.53
2022-10-01T00:21:28.009Z,4.57
2022-10-01T00:23:58.705Z,5.03
2022-10-01T00:26:31.278Z,4.10
2022-10-01T00:29:04.410Z,4.43
2022-10-01T00:31:33.364Z,3.93
2022-10-01T00:34:03.798Z,4.47
2022-10-01T00:36:35.225Z,4.50
2022-10-01T00:39:03.918Z,4.13
2022-10-01T00:41:35.931Z,4.47
2022-10-01T00:44:33.979Z,3.47
2022-10-01T00:47:24.517Z,4.00
2022-10-01T00:49:59.566Z,3.97
2022-10-01T00:52:33.993Z,4.30
2022-10-01T00:55:12.848Z,4.20
2022-10-01T00:57:45.157Z,3.87
2022-10-01T01:00:15.661Z,3.73
2022-10-01T01:02:44.649Z,4.00
2022-10-01T01:05:14.028Z,4.00
2022-10-01T01:07:48.174Z,3.63
2022-10-01T01:10:23.494Z,4.10
2022-10-01T01:13:13.393Z,4.27
2022-10-01T01:15:53.424Z,3.60
2022-10-01T01:18:31.094Z,3.60
2022-10-01T01:21:15.953Z,3.40
2022-10-01T01:24:21.409Z,4.10
2022-10-01T01:27:20.363Z,3.93
2022-10-01T01:29:56.471Z,3.63
2022-10-01T01:32:31.950Z,3.10
2022-10-01T01:35:05.026Z,3.90
2022-10-01T01:37:41.189Z,3.50
2022-10-01T01:40:15.113Z,3.93
2022-10-01T01:42:46.543Z,4.17
2022-10-01T01:45:23.330Z,4.00
2022-10-01T01:47:56.055Z,4.60
2022-10-01T01:50:28.930Z,4.30
2022-10-01T01:52:57.605Z,3.57
2022-10-01T01:55:29.843Z,3.97
2022-10-01T01:57:59.830Z,4.27
2022-10-01T02:00:30.121Z,4.30
2022-10-01T02:02:59.528Z,4.03
2022-10-01T02:05:37.175Z,4.30
2022-10-01T02:08:27.783Z,3.93
2022-10-01T02:11:26.014Z,4.00
2022-10-01T02:14:16.841Z,3.77
2022-10-01T02:16:57.822Z,3.70
2022-10-01T02:19:36.583Z,3.40
2022-10-01T02:22:12.547Z,3.60
2022-10-01T02:24:48.563Z,3.83
2022-10-01T02:27:24.623Z,3.80
2022-10-01T02:29:57.089Z,3.60
2022-10-01T02:32:30.863Z,3.43
2022-10-01T02:35:00.731Z,3.60
2022-10-01T02:37:30.083Z,3.70
2022-10-01T02:40:02.595Z,4.03
2022-10-01T02:42:32.324Z,3.77
2022-10-01T02:45:04.019Z,3.33
2022-10-01T02:47:41.682Z,4.97
2022-10-01T02:50:12.757Z,3.87
2022-10-01T02:52:50.566Z,3.37
2022-10-01T02:55:28.622Z,3.63
2022-10-01T02:57:57.546Z,3.30
2022-10-01T03:00:26.963Z,3.47
2022-10-01T03:02:57.402Z,3.30
2022-10-01T03:05:26.995Z,3.37
2022-10-01T03:07:55.401Z,3.20
2022-10-01T03:10:23.987Z,3.33
2022-10-01T03:12:52.427Z,3.60
2022-10-01T03:15:21.639Z,3.87
2022-10-01T03:17:52.370Z,3.50
2022-10-01T03:20:23.185Z,3.47
2022-10-01T03:22:52.007Z,3.13
2022-10-01T03:25:20.620Z,3.83
2022-10-01T03:27:53.641Z,3.80
2022-10-01T03:30:22.124Z,3.57
2022-10-01T03:32:50.780Z,3.40
2022-10-01T03:35:21.058Z,3.50
2022-10-01T03:37:49.869Z,3.03
2022-10-01T03:40:19.326Z,3.57
2022-10-01T03:42:47.737Z,3.17
2022-10-01T03:45:16.358Z,3.23
2022-10-01T03:47:44.751Z,2.80
2022-10-01T03:50:13.751Z,3.13
2022-10-01T03:52:46.979Z,2.80
2022-10-01T03:55:15.542Z,3.40
2022-10-01T03:57:44.006Z,2.97
2022-10-01T04:00:14.033Z,3.80
2022-10-01T04:02:42.860Z,3.03
2022-10-01T04:05:12.294Z,2.87
2022-10-01T04:07:43.934Z,2.93
2022-10-01T04:10:12.686Z,2.77
2022-10-01T04:12:41.422Z,2.87
2022-10-01T04:15:11.071Z,3.03
2022-10-01T04:17:43.796Z,3.13
2022-10-01T04:20:14.555Z,2.90
2022-10-01T04:22:44.866Z,3.10
2022-10-01T04:25:14.023Z,2.70
2022-10-01T04:27:55.898Z,3.00
2022-10-01T04:30:25.442Z,4.13
2022-10-01T04:32:53.911Z,2.70
2022-10-01T04:35:22.779Z,2.63
2022-10-01T04:38:02.418Z,2.63
2022-10-01T04:40:31.368Z,2.70
2022-10-01T04:43:00.351Z,2.53
2022-10-01T04:45:29.477Z,2.90
2022-10-01T04:47:58.296Z,2.67
2022-10-01T04:50:28.479Z,2.87
2022-10-01T04:52:58.478Z,2.73
2022-10-01T04:55:27.309Z,2.60
2022-10-01T04:57:56.151Z,2.87
2022-10-01T05:00:26.523Z,2.67
2022-10-01T05:02:55.266Z,2.57
2022-10-01T05:05:28.118Z,2.80
2022-10-01T05:07:58.422Z,2.40
2022-10-01T05:10:27.539Z,2.57
2022-10-01T05:12:57.520Z,2.17
2022-10-01T05:15:26.255Z,3.00
2022-10-01T05:17:54.660Z,2.70
2022-10-01T05:20:26.916Z,2.47
2022-10-01T05:22:56.435Z,2.90
2022-10-01T05:25:26.207Z,2.70
2022-10-01T05:27:54.686Z,2.60
2022-10-01T05:30:24.091Z,2.67
2022-10-01T05:32:57.847Z,2.87
2022-10-01T05:35:26.604Z,2.40
2022-10-01T05:37:57.339Z,2.50
2022-10-01T05:40:29.554Z,3.00
2022-10-01T05:43:00.211Z,2.60
2022-10-01T05:45:30.724Z,2.87
2022-10-01T05:48:01.659Z,2.63
2022-10-01T05:50:32.881Z,2.90
2022-10-01T05:53:02.475Z,3.37
2022-10-01T05:55:33.294Z,2.60
2022-10-01T05:58:04.596Z,2.70
2022-10-01T06:00:34.765Z,6.33
2022-10-01T06:03:06.392Z,2.83
2022-10-01T06:05:38.419Z,3.00
2022-10-01T06:08:09.613Z,2.90
2022-10-01T06:10:40.395Z,2.80
2022-10-01T06:13:09.475Z,3.10
2022-10-01T06:15:40.282Z,3.23
2022-10-01T06:18:11.338Z,3.07
2022-10-01T06:20:40.915Z,3.30
2022-10-01T06:23:13.427Z,3.03
2022-10-01T06:25:44.673Z,3.23
2022-10-01T06:28:15.480Z,3.40
2022-10-01T06:30:43.949Z,3.87
2022-10-01T06:33:14.980Z,3.47
2022-10-01T06:35:45.539Z,3.13
2022-10-01T06:38:14.963Z,3.27
2022-10-01T06:40:45.246Z,3.43
2022-10-01T06:43:13.688Z,3.37
2022-10-01T06:45:42.439Z,3.00
2022-10-01T06:48:15.439Z,3.17
2022-10-01T06:50:45.381Z,3.07
2022-10-01T06:53:15.705Z,3.37
2022-10-01T06:55:46.353Z,3.13
2022-10-01T06:58:17.273Z,3.23
2022-10-01T07:00:46.886Z,3.03
2022-10-01T07:03:18.544Z,3.60
2022-10-01T07:05:47.803Z,3.13
2022-10-01T07:08:16.570Z,3.40
2022-10-01T07:10:46.610Z,3.00
2022-10-01T07:13:18.515Z,2.93
2022-10-01T07:15:47.453Z,2.60
2022-10-01T07:18:16.879Z,3.30
2022-10-01T07:20:45.970Z,2.80
2022-10-01T07:23:16.723Z,2.90
2022-10-01T07:25:46.618Z,2.83
2022-10-01T07:28:18.391Z,3.20
2022-10-01T07:30:57.469Z,2.80
2022-10-01T07:33:26.273Z,2.97
2022-10-01T07:35:55.453Z,3.00
2022-10-01T07:38:23.935Z,3.00
2022-10-01T07:40:55.233Z,3.03
2022-10-01T07:43:23.891Z,2.47
2022-10-01T07:45:55.018Z,2.67
2022-10-01T07:48:23.674Z,2.63
2022-10-01T07:50:52.886Z,2.40
2022-10-01T07:53:21.525Z,3.83
2022-10-01T07:55:49.907Z,2.20
2022-10-01T07:58:23.789Z,2.10
2022-10-01T08:00:55.990Z,2.10
2022-10-01T08:03:24.812Z,2.23
2022-10-01T08:05:54.571Z,2.10
2022-10-01T08:08:23.296Z,1.83
2022-10-01T08:10:51.792Z,2.00
2022-10-01T08:13:24.786Z,1.90
2022-10-01T08:15:54.753Z,2.10
2022-10-01T08:18:24.430Z,1.80
2022-10-01T08:20:53.437Z,1.63
2022-10-01T08:23:22.698Z,1.63
2022-10-01T08:25:51.166Z,1.67
2022-10-01T08:28:21.875Z,1.60
2022-10-01T08:30:50.287Z,1.47
2022-10-01T08:33:19.495Z,1.70
2022-10-01T08:35:47.904Z,1.20
2022-10-01T08:38:17.613Z,1.57
2022-10-01T08:40:49.235Z,1.23
2022-10-01T08:43:32.538Z,1.17
2022-10-01T08:46:05.860Z,1.00
2022-10-01T08:48:56.905Z,1.03
2022-10-01T08:51:38.291Z,1.13
2022-10-01T08:54:24.898Z,0.93
2022-10-01T08:56:56.439Z,1.20
2022-10-01T08:59:40.582Z,0.87
2022-10-01T09:02:22.639Z,0.80
2022-10-01T09:05:00.457Z,1.40
2022-10-01T09:07:50.258Z,1.20
2022-10-01T09:10:36.139Z,0.87
2022-10-01T09:13:40.494Z,1.10
2022-10-01T09:16:24.366Z,0.90
2022-10-01T09:19:13.322Z,0.93
2022-10-01T09:21:56.463Z,1.00
2022-10-01T09:24:42.096Z,1.00
2022-10-01T09:27:16.786Z,1.10
2022-10-01T09:29:53.615Z,0.80
2022-10-01T09:32:29.899Z,1.00
2022-10-01T09:35:04.512Z,0.80
2022-10-01T09:37:49.857Z,0.80
2022-10-01T09:40:28.671Z,0.93
2022-10-01T09:42:57.963Z,0.70
2022-10-01T09:45:27.420Z,0.60
2022-10-01T09:48:08.985Z,0.80
2022-10-01T09:50:50.305Z,0.80
2022-10-01T09:53:26.105Z,0.77
2022-10-01T09:56:00.391Z,0.70
2022-10-01T09:58:32.135Z,0.70
2022-10-01T10:01:01.471Z,0.70
2022-10-01T10:03:32.937Z,0.60
2022-10-01T10:06:02.227Z,0.60
2022-10-01T10:08:34.543Z,0.50
2022-10-01T10:11:07.322Z,0.50
2022-10-01T10:13:40.302Z,0.50
2022-10-01T10:16:18.305Z,0.77
2022-10-01T10:18:52.228Z,0.60
2022-10-01T10:21:26.576Z,0.60
2022-10-01T10:23:57.922Z,0.50
2022-10-01T10:26:33.173Z,0.67
2022-10-01T10:29:04.242Z,0.70
2022-10-01T10:31:42.769Z,0.70
2022-10-01T10:34:19.410Z,0.93
2022-10-01T10:36:49.803Z,1.00
2022-10-01T10:39:24.285Z,0.80
2022-10-01T10:41:54.772Z,0.60
2022-10-01T10:44:27.338Z,0.80
2022-10-01T10:47:02.753Z,0.50
2022-10-01T10:49:37.016Z,0.97
2022-10-01T10:52:23.671Z,0.80
2022-10-01T10:54:53.279Z,0.93
2022-10-01T10:57:28.008Z,1.00
2022-10-01T10:59:59.107Z,0.93
2022-10-01T11:02:30.849Z,1.20
2022-10-01T11:05:05.381Z,1.40
2022-10-01T11:07:34.259Z,0.80
2022-10-01T11:10:24.566Z,0.83
2022-10-01T11:13:20.465Z,1.13
2022-10-01T11:16:12.385Z,0.90
2022-10-01T11:19:01.487Z,1.10
2022-10-01T11:21:52.027Z,1.30
2022-10-01T11:24:51.278Z,3.20
2022-10-01T11:27:32.181Z,1.07
2022-10-01T11:30:09.169Z,1.40
2022-10-01T11:32:46.040Z,1.13
2022-10-01T11:35:44.102Z,0.90
2022-10-01T11:38:46.571Z,0.63
2022-10-01T11:41:39.264Z,1.10
2022-10-01T11:44:16.892Z,0.90
2022-10-01T11:46:56.305Z,0.50
2022-10-01T11:49:49.375Z,0.70
2022-10-01T11:52:32.623Z,0.60
2022-10-01T11:55:34.599Z,1.30
2022-10-01T11:58:33.247Z,0.90
2022-10-01T12:01:11.708Z,1.00
2022-10-01T12:03:56.609Z,1.07
2022-10-01T12:06:34.342Z,1.03
2022-10-01T12:09:15.183Z,1.10
2022-10-01T12:11:52.730Z,1.20
2022-10-01T12:14:31.364Z,1.17
2022-10-01T12:17:12.069Z,1.23
2022-10-01T12:19:50.345Z,1.27
2022-10-01T12:22:28.341Z,1.20
2022-10-01T12:24:56.992Z,1.80
2022-10-01T12:27:44.351Z,2.10
2022-10-01T12:30:17.553Z,1.83
2022-10-01T12:33:05.410Z,1.40
2022-10-01T12:35:53.951Z,1.10
2022-10-01T12:38:44.683Z,0.90
2022-10-01T12:41:30.240Z,1.20
2022-10-01T12:44:32.386Z,0.83
2022-10-01T12:47:17.330Z,0.90
2022-10-01T12:49:59.013Z,0.63
2022-10-01T12:52:44.238Z,1.00
2022-10-01T12:55:30.698Z,1.00
2022-10-01T12:58:17.150Z,0.80
2022-10-01T13:00:58.456Z,0.90
2022-10-01T13:04:08.690Z,0.83
2022-10-01T13:06:52.843Z,0.80
2022-10-01T13:09:33.571Z,0.70
2022-10-01T13:12:28.686Z,1.00
2022-10-01T13:14:59.491Z,1.00
2022-10-01T13:17:42.297Z,1.20
2022-10-01T13:20:24.372Z,1.93
2022-10-01T13:23:06.206Z,1.43
2022-10-01T13:25:45.041Z,1.20
2022-10-01T13:28:21.380Z,1.27
2022-10-01T13:31:00.185Z,1.40
2022-10-01T13:33:35.948Z,1.47
2022-10-01T13:36:06.958Z,1.50
2022-10-01T13:38:43.771Z,1.10
2022-10-01T13:41:23.640Z,1.10
2022-10-01T13:43:58.096Z,0.93
2022-10-01T13:46:33.136Z,1.50
2022-10-01T13:49:16.606Z,1.40
2022-10-01T13:51:47.276Z,1.47
2022-10-01T13:54:27.701Z,1.50
2022-10-01T13:56:56.599Z,1.17
2022-10-01T13:59:33.678Z,1.30
2022-10-01T14:02:02.937Z,1.57
2022-10-01T14:04:40.959Z,1.40
2022-10-01T14:07:21.928Z,1.47
2022-10-01T14:09:55.163Z,1.50
2022-10-01T14:12:49.987Z,2.00
2022-10-01T14:15:42.680Z,1.60
2022-10-01T14:18:19.721Z,1.50
2022-10-01T14:21:02.955Z,1.70
2022-10-01T14:23:42.790Z,1.80
2022-10-01T14:26:21.103Z,2.00
2022-10-01T14:29:07.020Z,1.63
2022-10-01T14:31:52.457Z,1.20
2022-10-01T14:34:43.795Z,1.60
2022-10-01T14:37:19.749Z,2.20
2022-10-01T14:40:01.620Z,2.20
2022-10-01T14:42:30.128Z,1.83
2022-10-01T14:44:59.136Z,1.50
2022-10-01T14:47:34.872Z,2.00
2022-10-01T14:50:11.450Z,1.90
2022-10-01T14:52:49.330Z,1.30
2022-10-01T14:55:22.883Z,2.00
2022-10-01T14:57:55.924Z,2.00
2022-10-01T15:00:27.993Z,1.83
2022-10-01T15:03:12.585Z,1.80
2022-10-01T15:05:40.998Z,1.80
2022-10-01T15:08:17.252Z,1.30
2022-10-01T15:10:51.260Z,1.73
2022-10-01T15:13:28.187Z,1.60
2022-10-01T15:15:57.098Z,1.50
2022-10-01T15:18:26.730Z,1.63
2022-10-01T15:20:58.920Z,1.73
2022-10-01T15:23:31.706Z,1.33
2022-10-01T15:26:05.567Z,1.50
2022-10-01T15:28:37.562Z,1.47
2022-10-01T15:31:08.574Z,1.13
2022-10-01T15:33:40.921Z,1.33
2022-10-01T15:36:16.457Z,0.90
2022-10-01T15:38:48.805Z,1.17
2022-10-01T15:41:31.942Z,1.13
2022-10-01T15:44:06.354Z,1.00
2022-10-01T15:46:36.222Z,1.00
2022-10-01T15:49:20.376Z,1.00
2022-10-01T15:52:14.779Z,1.00
2022-10-01T15:54:47.005Z,0.40
2022-10-01T15:57:22.238Z,0.60
2022-10-01T15:59:54.170Z,0.97
2022-10-01T16:02:29.974Z,1.93
2022-10-01T16:05:06.625Z,1.70
2022-10-01T16:07:35.549Z,0.77
2022-10-01T16:10:31.267Z,0.83
2022-10-01T16:13:00.785Z,1.60
2022-10-01T16:15:31.311Z,2.00
2022-10-01T16:18:02.384Z,0.80
2022-10-01T16:20:44.781Z,1.13
2022-10-01T16:23:47.773Z,2.33
2022-10-01T16:26:43.081Z,2.13
2022-10-01T16:29:26.738Z,1.60
2022-10-01T16:31:57.122Z,1.60
2022-10-01T16:34:27.989Z,1.43
2022-10-01T16:36:57.813Z,1.20
2022-10-01T16:39:26.210Z,3.00
2022-10-01T16:42:19.089Z,3.10
2022-10-01T16:44:44.783Z,3.90
2022-10-01T16:47:13.827Z,4.73
2022-10-01T16:49:42.379Z,3.40
2022-10-01T16:52:16.653Z,2.30
2022-10-01T16:54:47.298Z,1.70
2022-10-01T16:57:17.400Z,1.40
2022-10-01T16:59:45.819Z,1.60
2022-10-01T17:02:15.985Z,1.47
2022-10-01T17:04:44.486Z,1.77
2022-10-01T17:07:12.897Z,1.77
2022-10-01T17:09:41.631Z,1.57
2022-10-01T17:12:10.898Z,1.30
2022-10-01T17:14:41.418Z,1.20
2022-10-01T17:17:09.914Z,2.37
2022-10-01T17:19:38.545Z,1.63
2022-10-01T17:22:06.955Z,1.80
2022-10-01T17:24:35.543Z,1.90
2022-10-01T17:27:03.995Z,1.60
2022-10-01T17:29:33.480Z,1.40
2022-10-01T17:32:03.313Z,1.10
2022-10-01T17:34:33.156Z,1.20
2022-10-01T17:37:01.581Z,1.30
2022-10-01T17:39:30.611Z,1.40
2022-10-01T17:42:00.633Z,2.43
2022-10-01T17:44:29.546Z,2.80
2022-10-01T17:46:58.103Z,3.43
2022-10-01T17:49:27.967Z,2.90
2022-10-01T17:51:56.780Z,2.43
2022-10-01T17:54:25.587Z,2.47
2022-10-01T17:56:55.829Z,3.03
2022-10-01T17:59:24.313Z,2.37
2022-10-01T18:01:53.516Z,1.80
2022-10-01T18:04:22.782Z,1.63
2022-10-01T18:06:56.961Z,1.90
2022-10-01T18:09:28.106Z,1.97
2022-10-01T18:11:56.519Z,2.00
2022-10-01T18:14:24.948Z,1.37
2022-10-01T18:16:53.760Z,1.37
2022-10-01T18:22:14.290Z,1.63
2022-10-01T18:24:43.280Z,2.73
2022-10-01T18:27:12.223Z,1.93
2022-10-01T18:29:40.897Z,1.67
2022-10-01T18:32:18.279Z,1.43
2022-10-01T18:34:54.303Z,2.17
2022-10-01T18:37:37.581Z,1.73
2022-10-01T18:40:13.487Z,1.37
2022-10-01T18:42:52.177Z,2.10
2022-10-01T18:45:48.860Z,2.30
2022-10-01T18:48:43.547Z,1.40
2022-10-01T18:51:27.390Z,1.17
2022-10-01T18:54:21.016Z,1.83
2022-10-01T18:57:04.559Z,1.53
2022-10-01T19:00:02.447Z,1.33
2022-10-01T19:03:24.721Z,2.00
2022-10-01T19:06:29.711Z,1.27
2022-10-01T19:09:14.901Z,1.30
2022-10-01T19:11:57.998Z,1.10
2022-10-01T19:14:49.158Z,1.30
2022-10-01T19:17:35.966Z,1.37
2022-10-01T19:20:22.632Z,0.90
2022-10-01T19:23:14.119Z,1.07
2022-10-01T19:25:50.945Z,1.40
2022-10-01T19:28:41.038Z,1.70
2022-10-01T19:31:20.715Z,1.30
2022-10-01T19:33:57.363Z,1.23
2022-10-01T19:36:34.599Z,2.47
2022-10-01T19:39:10.451Z,1.40
2022-10-01T19:41:48.538Z,2.10
2022-10-01T19:44:25.184Z,1.60
2022-10-01T19:46:58.601Z,1.63
2022-10-01T19:49:36.076Z,1.50
2022-10-01T19:52:13.442Z,1.53
2022-10-01T19:54:48.694Z,1.60
2022-10-01T19:57:26.027Z,1.20
2022-10-01T19:59:58.467Z,1.33
2022-10-01T20:02:35.283Z,1.23
2022-10-01T20:05:07.880Z,1.53
2022-10-01T20:07:47.872Z,1.57
2022-10-01T20:10:24.128Z,1.50
2022-10-01T20:13:10.618Z,1.43
2022-10-01T20:15:49.503Z,1.50
2022-10-01T20:18:30.742Z,1.47
2022-10-01T20:21:23.989Z,1.60
2022-10-01T20:24:04.622Z,1.60
2022-10-01T20:26:44.834Z,1.33
2022-10-01T20:29:38.036Z,1.30
2022-10-01T20:32:19.507Z,0.93
2022-10-01T20:35:09.544Z,1.50
2022-10-01T20:37:55.729Z,1.47
2022-10-01T20:40:29.815Z,1.57
2022-10-01T20:43:07.237Z,1.67
2022-10-01T20:45:39.395Z,0.97
2022-10-01T20:48:19.256Z,1.33
2022-10-01T20:50:51.953Z,1.50
2022-10-01T20:53:31.998Z,1.57
2022-10-01T20:56:10.166Z,1.70
2022-10-01T20:58:44.444Z,1.30
2022-10-01T21:01:21.341Z,1.03
2022-10-01T21:03:58.161Z,1.23
2022-10-01T21:06:38.257Z,1.90
2022-10-01T21:09:19.844Z,0.90
2022-10-01T21:12:00.228Z,0.93
2022-10-01T21:14:36.793Z,1.13
2022-10-01T21:17:28.746Z,1.10
2022-10-01T21:20:20.220Z,1.67
2022-10-01T21:23:12.422Z,1.27
2022-10-01T21:26:03.208Z,1.30
2022-10-01T21:28:57.213Z,1.97
2022-10-01T21:31:41.554Z,1.10
2022-10-01T21:34:22.828Z,1.30
2022-10-01T21:37:05.092Z,1.20
2022-10-01T21:39:45.845Z,1.20
2022-10-01T21:42:18.504Z,1.00
2022-10-01T21:45:23.612Z,1.03
2022-10-01T21:48:14.087Z,1.10
2022-10-01T21:50:54.241Z,1.40
2022-10-01T21:54:19.284Z,2.80
2022-10-01T21:57:13.318Z,1.20
2022-10-01T22:00:09.737Z,1.50
2022-10-01T22:02:53.569Z,1.10
2022-10-01T22:05:34.000Z,1.40
2022-10-01T22:08:19.114Z,1.20
2022-10-01T22:10:51.770Z,1.10
2022-10-01T22:13:24.492Z,1.17
2022-10-01T22:15:59.828Z,1.30
2022-10-01T22:18:39.026Z,1.80
2022-10-01T22:21:13.820Z,1.30
2022-10-01T22:23:52.601Z,1.10
2022-10-01T22:26:25.924Z,1.50
2022-10-01T22:28:57.606Z,1.20
2022-10-01T22:31:35.134Z,1.30
2022-10-01T22:34:12.683Z,1.17
2022-10-01T22:36:49.003Z,1.23
2022-10-01T22:39:24.438Z,1.63
2022-10-01T22:42:01.307Z,1.60
2022-10-01T22:44:30.534Z,1.33
2022-10-01T22:47:30.719Z,1.40
2022-10-01T22:50:32.288Z,1.27
2022-10-01T22:53:34.911Z,1.60
2022-10-01T22:56:04.734Z,1.13
2022-10-01T22:59:00.925Z,1.67
2022-10-01T23:01:46.580Z,1.23
2022-10-01T23:04:41.755Z,1.20
2022-10-01T23:07:27.179Z,1.20
2022-10-01T23:10:03.998Z,1.67
2022-10-01T23:12:51.605Z,1.77
2022-10-01T23:15:35.725Z,1.30
2022-10-01T23:18:17.786Z,1.57
2022-10-01T23:20:59.146Z,1.47
2022-10-01T23:23:32.669Z,1.10
2022-10-01T23:26:33.452Z,1.27
2022-10-01T23:29:41.292Z,0.80
2022-10-01T23:32:28.514Z,1.00
2022-10-01T23:35:12.974Z,1.00
2022-10-01T23:38:29.781Z,0.83
2022-10-01T23:41:10.095Z,1.03
2022-10-01T23:43:46.789Z,1.40
2022-10-01T23:46:23.565Z,1.30
2022-10-01T23:49:00.755Z,1.10
2022-10-01T23:51:39.001Z,1.27
2022-10-01T23:54:19.651Z,1.40
2022-10-01T23:56:55.205Z,0.97
2022-10-01T23:59:32.787Z,1.40
